sensor_id;sensor_type;location;lat;lon;timestamp;temperature;humidity
49242;DHT22;35079;52.704;13.814;2023-06-14T00:01:38;13.50;99.90
49242;DHT22;35079;52.704;13.814;2023-06-14T00:04:03;13.30;99.90
49242;DHT22;35079;52.704;13.814;2023-06-14T00:06:31;13.20;99.90
49242;DHT22;35079;52.704;13.814;2023-06-14T00:08:56;13.10;99.90
49242;DHT22;35079;52.704;13.814;2023-06-14T00:11:22;13.10;99.90
49242;DHT22;35079;52.704;13.814;2023-06-14T00:13:48;13.00;99.90
49242;DHT22;35079;52.704;13.814;2023-06-14T00:16:13;13.10;99.90
49242;DHT22;35079;52.704;13.814;2023-06-14T00:18:39;13.00;99.90
49242;DHT22;35079;52.704;13.814;2023-06-14T00:21:05;13.00;99.90
49242;DHT22;35079;52.704;13.814;2023-06-14T00:23:30;13.10;99.90
49242;DHT22;35079;52.704;13.814;2023-06-14T00:25:56;13.00;99.90
49242;DHT22;35079;52.704;13.814;2023-06-14T00:28:22;12.90;99.90
49242;DHT22;35079;52.704;13.814;2023-06-14T00:30:48;12.90;99.90
49242;DHT22;35079;52.704;13.814;2023-06-14T00:33:13;13.10;99.90
49242;DHT22;35079;52.704;13.814;2023-06-14T00:35:39;12.90;99.90
49242;DHT22;35079;52.704;13.814;2023-06-14T00:38:05;13.00;99.90
49242;DHT22;35079;52.704;13.814;2023-06-14T00:40:30;13.00;99.90
49242;DHT22;35079;52.704;13.814;2023-06-14T00:42:56;13.00;99.90
49242;DHT22;35079;52.704;13.814;2023-06-14T00:45:22;12.90;99.90
49242;DHT22;35079;52.704;13.814;2023-06-14T00:47:48;12.90;99.90
49242;DHT22;35079;52.704;13.814;2023-06-14T00:50:16;13.10;99.90
49242;DHT22;35079;52.704;13.814;2023-06-14T00:52:42;13.00;99.90
49242;DHT22;35079;52.704;13.814;2023-06-14T00:55:08;12.90;99.90
49242;DHT22;35079;52.704;13.814;2023-06-14T00:57:34;13.00;99.90
49242;DHT22;35079;52.704;13.814;2023-06-14T01:00:03;12.90;99.90
49242;DHT22;35079;52.704;13.814;2023-06-14T01:02:33;13.00;99.90
49242;DHT22;35079;52.704;13.814;2023-06-14T01:04:59;12.90;99.90
49242;DHT22;35079;52.704;13.814;2023-06-14T01:15:47;12.80;99.90
49242;DHT22;35079;52.704;13.814;2023-06-14T01:18:13;12.80;99.90
49242;DHT22;35079;52.704;13.814;2023-06-14T01:20:46;12.60;99.90
49242;DHT22;35079;52.704;13.814;2023-06-14T01:23:18;12.60;99.90
49242;DHT22;35079;52.704;13.814;2023-06-14T01:25:43;12.60;99.90
49242;DHT22;35079;52.704;13.814;2023-06-14T01:28:11;12.70;99.90
49242;DHT22;35079;52.704;13.814;2023-06-14T01:30:40;12.70;99.90
49242;DHT22;35079;52.704;13.814;2023-06-14T01:33:13;12.70;99.90
49242;DHT22;35079;52.704;13.814;2023-06-14T01:35:46;12.80;99.90
49242;DHT22;35079;52.704;13.814;2023-06-14T01:38:17;12.80;99.90
49242;DHT22;35079;52.704;13.814;2023-06-14T01:40:45;12.80;99.90
49242;DHT22;35079;52.704;13.814;2023-06-14T01:43:13;12.90;99.90
49242;DHT22;35079;52.704;13.814;2023-06-14T01:45:40;12.70;99.90
49242;DHT22;35079;52.704;13.814;2023-06-14T01:48:07;12.70;99.90
49242;DHT22;35079;52.704;13.814;2023-06-14T01:50:33;12.70;99.90
49242;DHT22;35079;52.704;13.814;2023-06-14T01:52:59;12.60;99.90
49242;DHT22;35079;52.704;13.814;2023-06-14T01:55:25;12.70;99.90
49242;DHT22;35079;52.704;13.814;2023-06-14T01:57:51;12.50;99.90
49242;DHT22;35079;52.704;13.814;2023-06-14T02:00:17;12.50;99.90
49242;DHT22;35079;52.704;13.814;2023-06-14T02:02:43;12.40;99.90
49242;DHT22;35079;52.704;13.814;2023-06-14T02:05:09;12.60;99.90
49242;DHT22;35079;52.704;13.814;2023-06-14T02:07:36;12.50;99.90
49242;DHT22;35079;52.704;13.814;2023-06-14T02:10:03;12.50;99.90
49242;DHT22;35079;52.704;13.814;2023-06-14T02:12:28;12.40;99.90
49242;DHT22;35079;52.704;13.814;2023-06-14T02:14:54;12.50;99.90
49242;DHT22;35079;52.704;13.814;2023-06-14T02:17:19;12.40;99.90
49242;DHT22;35079;52.704;13.814;2023-06-14T02:19:45;12.60;99.90
49242;DHT22;35079;52.704;13.814;2023-06-14T02:22:11;12.40;99.90
49242;DHT22;35079;52.704;13.814;2023-06-14T02:24:37;12.50;99.90
49242;DHT22;35079;52.704;13.814;2023-06-14T02:27:03;12.40;99.90
49242;DHT22;35079;52.704;13.814;2023-06-14T02:29:28;12.40;99.90
49242;DHT22;35079;52.704;13.814;2023-06-14T02:31:54;12.30;99.90
49242;DHT22;35079;52.704;13.814;2023-06-14T02:34:20;12.50;99.90
49242;DHT22;35079;52.704;13.814;2023-06-14T02:36:47;12.40;99.90
49242;DHT22;35079;52.704;13.814;2023-06-14T02:39:13;12.30;99.90
49242;DHT22;35079;52.704;13.814;2023-06-14T02:41:39;12.20;99.90
49242;DHT22;35079;52.704;13.814;2023-06-14T02:44:06;12.20;99.90
49242;DHT22;35079;52.704;13.814;2023-06-14T02:46:32;12.20;99.90
49242;DHT22;35079;52.704;13.814;2023-06-14T02:48:57;12.30;99.90
49242;DHT22;35079;52.704;13.814;2023-06-14T02:51:23;12.30;99.90
49242;DHT22;35079;52.704;13.814;2023-06-14T02:53:48;12.30;99.90
49242;DHT22;35079;52.704;13.814;2023-06-14T02:56:14;12.20;99.90
49242;DHT22;35079;52.704;13.814;2023-06-14T02:58:42;12.20;99.90
49242;DHT22;35079;52.704;13.814;2023-06-14T03:01:08;12.30;99.90
49242;DHT22;35079;52.704;13.814;2023-06-14T03:03:38;12.30;99.90
49242;DHT22;35079;52.704;13.814;2023-06-14T03:06:03;12.30;99.90
49242;DHT22;35079;52.704;13.814;2023-06-14T03:08:31;12.30;99.90
49242;DHT22;35079;52.704;13.814;2023-06-14T03:11:04;12.40;99.90
49242;DHT22;35079;52.704;13.814;2023-06-14T03:13:31;12.30;99.90
49242;DHT22;35079;52.704;13.814;2023-06-14T03:15:59;12.40;99.90
49242;DHT22;35079;52.704;13.814;2023-06-14T03:18:26;12.30;99.90
49242;DHT22;35079;52.704;13.814;2023-06-14T03:20:52;12.10;99.90
49242;DHT22;35079;52.704;13.814;2023-06-14T03:23:19;12.20;99.90
49242;DHT22;35079;52.704;13.814;2023-06-14T03:25:44;12.30;99.90
49242;DHT22;35079;52.704;13.814;2023-06-14T03:28:10;12.20;99.90
49242;DHT22;35079;52.704;13.814;2023-06-14T03:30:36;12.30;99.90
49242;DHT22;35079;52.704;13.814;2023-06-14T03:33:01;12.30;99.90
49242;DHT22;35079;52.704;13.814;2023-06-14T03:35:28;12.30;99.90
49242;DHT22;35079;52.704;13.814;2023-06-14T03:37:53;12.50;99.90
49242;DHT22;35079;52.704;13.814;2023-06-14T03:40:21;12.40;99.90
49242;DHT22;35079;52.704;13.814;2023-06-14T03:42:46;12.60;99.90
49242;DHT22;35079;52.704;13.814;2023-06-14T03:45:12;12.40;99.90
49242;DHT22;35079;52.704;13.814;2023-06-14T03:47:38;12.60;99.90
49242;DHT22;35079;52.704;13.814;2023-06-14T03:50:04;12.60;99.90
49242;DHT22;35079;52.704;13.814;2023-06-14T03:52:30;12.50;99.90
49242;DHT22;35079;52.704;13.814;2023-06-14T03:54:56;12.50;99.90
49242;DHT22;35079;52.704;13.814;2023-06-14T03:57:23;12.60;99.90
49242;DHT22;35079;52.704;13.814;2023-06-14T03:59:48;12.70;99.90
49242;DHT22;35079;52.704;13.814;2023-06-14T04:02:15;12.70;99.90
49242;DHT22;35079;52.704;13.814;2023-06-14T04:04:42;12.70;99.90
49242;DHT22;35079;52.704;13.814;2023-06-14T04:07:14;12.90;99.90
49242;DHT22;35079;52.704;13.814;2023-06-14T04:09:40;12.90;99.90
49242;DHT22;35079;52.704;13.814;2023-06-14T04:12:06;13.00;99.90
49242;DHT22;35079;52.704;13.814;2023-06-14T04:14:34;13.00;99.90
49242;DHT22;35079;52.704;13.814;2023-06-14T04:17:00;13.00;99.90
49242;DHT22;35079;52.704;13.814;2023-06-14T04:19:26;13.10;99.90
49242;DHT22;35079;52.704;13.814;2023-06-14T04:21:51;13.20;99.90
49242;DHT22;35079;52.704;13.814;2023-06-14T04:24:17;13.40;99.90
49242;DHT22;35079;52.704;13.814;2023-06-14T04:26:44;13.40;99.90
49242;DHT22;35079;52.704;13.814;2023-06-14T04:29:11;13.50;99.90
49242;DHT22;35079;52.704;13.814;2023-06-14T04:31:40;13.60;99.90
49242;DHT22;35079;52.704;13.814;2023-06-14T04:34:05;13.70;99.90
49242;DHT22;35079;52.704;13.814;2023-06-14T04:36:33;13.70;99.90
49242;DHT22;35079;52.704;13.814;2023-06-14T04:39:07;13.80;99.90
49242;DHT22;35079;52.704;13.814;2023-06-14T04:41:33;14.00;99.90
49242;DHT22;35079;52.704;13.814;2023-06-14T04:44:00;14.00;99.90
49242;DHT22;35079;52.704;13.814;2023-06-14T04:46:29;14.10;99.90
49242;DHT22;35079;52.704;13.814;2023-06-14T04:48:57;14.20;99.90
49242;DHT22;35079;52.704;13.814;2023-06-14T04:51:23;14.10;99.90
49242;DHT22;35079;52.704;13.814;2023-06-14T04:53:56;14.10;99.90
49242;DHT22;35079;52.704;13.814;2023-06-14T04:56:26;14.10;99.90
49242;DHT22;35079;52.704;13.814;2023-06-14T04:58:52;14.20;99.90
49242;DHT22;35079;52.704;13.814;2023-06-14T05:01:19;14.40;99.90
49242;DHT22;35079;52.704;13.814;2023-06-14T05:03:46;14.40;99.90
49242;DHT22;35079;52.704;13.814;2023-06-14T05:06:14;14.50;99.90
49242;DHT22;35079;52.704;13.814;2023-06-14T05:08:41;14.60;99.90
49242;DHT22;35079;52.704;13.814;2023-06-14T05:11:06;14.80;99.90
49242;DHT22;35079;52.704;13.814;2023-06-14T05:13:32;14.90;99.90
49242;DHT22;35079;52.704;13.814;2023-06-14T05:15:58;15.10;99.90
49242;DHT22;35079;52.704;13.814;2023-06-14T05:18:24;15.00;99.90
49242;DHT22;35079;52.704;13.814;2023-06-14T05:20:51;15.10;99.90
49242;DHT22;35079;52.704;13.814;2023-06-14T05:23:16;15.20;99.90
49242;DHT22;35079;52.704;13.814;2023-06-14T05:25:46;15.10;99.90
49242;DHT22;35079;52.704;13.814;2023-06-14T05:28:11;15.30;99.90
49242;DHT22;35079;52.704;13.814;2023-06-14T05:30:38;15.30;99.90
49242;DHT22;35079;52.704;13.814;2023-06-14T05:33:05;15.50;99.90
49242;DHT22;35079;52.704;13.814;2023-06-14T05:35:31;15.40;99.90
49242;DHT22;35079;52.704;13.814;2023-06-14T05:37:56;15.60;99.90
49242;DHT22;35079;52.704;13.814;2023-06-14T05:40:22;15.60;99.90
49242;DHT22;35079;52.704;13.814;2023-06-14T05:42:47;15.70;99.90
49242;DHT22;35079;52.704;13.814;2023-06-14T05:45:13;15.60;99.90
49242;DHT22;35079;52.704;13.814;2023-06-14T05:47:41;15.60;99.90
49242;DHT22;35079;52.704;13.814;2023-06-14T05:50:07;15.60;99.90
49242;DHT22;35079;52.704;13.814;2023-06-14T05:52:34;15.50;99.90
49242;DHT22;35079;52.704;13.814;2023-06-14T05:55:01;15.50;99.90
49242;DHT22;35079;52.704;13.814;2023-06-14T05:57:27;15.50;99.90
49242;DHT22;35079;52.704;13.814;2023-06-14T05:59:53;15.60;99.90
49242;DHT22;35079;52.704;13.814;2023-06-14T06:02:19;15.60;99.90
49242;DHT22;35079;52.704;13.814;2023-06-14T06:04:45;15.70;99.90
49242;DHT22;35079;52.704;13.814;2023-06-14T06:07:14;15.80;99.90
49242;DHT22;35079;52.704;13.814;2023-06-14T06:09:41;15.80;99.90
49242;DHT22;35079;52.704;13.814;2023-06-14T06:12:07;16.00;99.90
49242;DHT22;35079;52.704;13.814;2023-06-14T06:14:33;15.80;99.90
49242;DHT22;35079;52.704;13.814;2023-06-14T06:16:58;15.90;99.90
49242;DHT22;35079;52.704;13.814;2023-06-14T06:19:24;16.00;99.90
49242;DHT22;35079;52.704;13.814;2023-06-14T06:21:50;16.10;99.90
49242;DHT22;35079;52.704;13.814;2023-06-14T06:24:16;16.10;99.90
49242;DHT22;35079;52.704;13.814;2023-06-14T06:26:42;16.20;99.90
49242;DHT22;35079;52.704;13.814;2023-06-14T06:29:08;16.40;99.90
49242;DHT22;35079;52.704;13.814;2023-06-14T06:31:34;16.50;99.90
49242;DHT22;35079;52.704;13.814;2023-06-14T06:33:59;16.30;99.90
49242;DHT22;35079;52.704;13.814;2023-06-14T06:36:25;16.50;99.90
49242;DHT22;35079;52.704;13.814;2023-06-14T06:38:51;16.60;99.90
49242;DHT22;35079;52.704;13.814;2023-06-14T06:41:16;16.60;99.90
49242;DHT22;35079;52.704;13.814;2023-06-14T06:43:42;16.60;99.90
49242;DHT22;35079;52.704;13.814;2023-06-14T06:46:07;16.90;99.90
49242;DHT22;35079;52.704;13.814;2023-06-14T06:48:33;16.90;99.90
49242;DHT22;35079;52.704;13.814;2023-06-14T06:50:59;17.00;99.90
49242;DHT22;35079;52.704;13.814;2023-06-14T06:53:24;17.00;99.90
49242;DHT22;35079;52.704;13.814;2023-06-14T06:55:50;17.10;99.90
49242;DHT22;35079;52.704;13.814;2023-06-14T06:58:16;17.30;99.90
49242;DHT22;35079;52.704;13.814;2023-06-14T07:00:42;17.40;99.90
49242;DHT22;35079;52.704;13.814;2023-06-14T07:03:07;17.40;99.90
49242;DHT22;35079;52.704;13.814;2023-06-14T07:05:33;17.40;99.90
49242;DHT22;35079;52.704;13.814;2023-06-14T07:07:59;17.50;99.90
49242;DHT22;35079;52.704;13.814;2023-06-14T07:10:24;17.30;99.90
49242;DHT22;35079;52.704;13.814;2023-06-14T07:12:51;17.40;99.90
49242;DHT22;35079;52.704;13.814;2023-06-14T07:15:16;17.70;99.90
49242;DHT22;35079;52.704;13.814;2023-06-14T07:17:42;17.90;99.90
49242;DHT22;35079;52.704;13.814;2023-06-14T07:20:09;18.10;99.90
49242;DHT22;35079;52.704;13.814;2023-06-14T07:22:38;18.20;99.90
49242;DHT22;35079;52.704;13.814;2023-06-14T07:25:06;18.30;99.90
49242;DHT22;35079;52.704;13.814;2023-06-14T07:27:33;18.20;99.90
49242;DHT22;35079;52.704;13.814;2023-06-14T07:29:59;18.30;99.90
49242;DHT22;35079;52.704;13.814;2023-06-14T07:32:25;18.50;99.90
49242;DHT22;35079;52.704;13.814;2023-06-14T07:34:50;18.80;99.90
49242;DHT22;35079;52.704;13.814;2023-06-14T07:37:16;18.60;99.90
49242;DHT22;35079;52.704;13.814;2023-06-14T07:39:42;18.60;99.90
49242;DHT22;35079;52.704;13.814;2023-06-14T07:42:08;18.70;99.90
49242;DHT22;35079;52.704;13.814;2023-06-14T07:44:33;18.60;99.90
49242;DHT22;35079;52.704;13.814;2023-06-14T07:46:59;18.40;99.90
49242;DHT22;35079;52.704;13.814;2023-06-14T07:49:26;18.40;99.90
49242;DHT22;35079;52.704;13.814;2023-06-14T07:51:51;18.70;99.90
49242;DHT22;35079;52.704;13.814;2023-06-14T07:54:19;19.00;99.90
49242;DHT22;35079;52.704;13.814;2023-06-14T07:56:45;19.10;99.90
49242;DHT22;35079;52.704;13.814;2023-06-14T08:02:26;19.30;99.90
49242;DHT22;35079;52.704;13.814;2023-06-14T08:05:01;19.10;99.90
49242;DHT22;35079;52.704;13.814;2023-06-14T08:07:33;19.10;99.90
49242;DHT22;35079;52.704;13.814;2023-06-14T08:10:03;19.30;99.90
49242;DHT22;35079;52.704;13.814;2023-06-14T08:12:28;19.30;99.90
49242;DHT22;35079;52.704;13.814;2023-06-14T08:14:54;19.10;99.90
49242;DHT22;35079;52.704;13.814;2023-06-14T08:17:19;18.90;99.90
49242;DHT22;35079;52.704;13.814;2023-06-14T08:19:46;19.00;99.90
49242;DHT22;35079;52.704;13.814;2023-06-14T08:22:12;19.10;99.90
49242;DHT22;35079;52.704;13.814;2023-06-14T08:24:38;19.10;99.90
49242;DHT22;35079;52.704;13.814;2023-06-14T08:27:05;19.10;99.90
49242;DHT22;35079;52.704;13.814;2023-06-14T08:29:31;19.30;99.90
49242;DHT22;35079;52.704;13.814;2023-06-14T08:31:57;19.40;99.90
49242;DHT22;35079;52.704;13.814;2023-06-14T08:34:23;19.50;99.90
49242;DHT22;35079;52.704;13.814;2023-06-14T08:36:50;19.70;99.90
49242;DHT22;35079;52.704;13.814;2023-06-14T08:39:16;19.80;99.90
49242;DHT22;35079;52.704;13.814;2023-06-14T08:41:43;19.80;99.90
49242;DHT22;35079;52.704;13.814;2023-06-14T08:44:11;20.00;99.90
49242;DHT22;35079;52.704;13.814;2023-06-14T08:46:37;20.00;99.90
49242;DHT22;35079;52.704;13.814;2023-06-14T08:49:03;20.30;99.90
49242;DHT22;35079;52.704;13.814;2023-06-14T08:51:31;20.20;99.90
49242;DHT22;35079;52.704;13.814;2023-06-14T08:54:02;20.10;99.90
49242;DHT22;35079;52.704;13.814;2023-06-14T08:56:30;20.30;99.90
49242;DHT22;35079;52.704;13.814;2023-06-14T08:58:57;20.20;99.90
49242;DHT22;35079;52.704;13.814;2023-06-14T09:01:26;20.30;99.90
49242;DHT22;35079;52.704;13.814;2023-06-14T09:03:52;20.40;99.90
49242;DHT22;35079;52.704;13.814;2023-06-14T09:06:21;20.40;99.90
49242;DHT22;35079;52.704;13.814;2023-06-14T09:08:49;20.60;99.90
49242;DHT22;35079;52.704;13.814;2023-06-14T09:11:17;20.50;99.90
49242;DHT22;35079;52.704;13.814;2023-06-14T09:13:45;20.50;99.90
49242;DHT22;35079;52.704;13.814;2023-06-14T09:16:11;20.40;99.90
49242;DHT22;35079;52.704;13.814;2023-06-14T09:18:41;20.60;99.90
49242;DHT22;35079;52.704;13.814;2023-06-14T09:21:10;20.00;99.90
49242;DHT22;35079;52.704;13.814;2023-06-14T09:23:40;19.80;99.90
49242;DHT22;35079;52.704;13.814;2023-06-14T09:26:11;20.00;99.90
49242;DHT22;35079;52.704;13.814;2023-06-14T09:28:44;20.40;99.90
49242;DHT22;35079;52.704;13.814;2023-06-14T09:31:14;20.10;99.90
49242;DHT22;35079;52.704;13.814;2023-06-14T09:33:43;20.10;99.90
49242;DHT22;35079;52.704;13.814;2023-06-14T09:36:24;19.60;99.90
49242;DHT22;35079;52.704;13.814;2023-06-14T09:41:37;19.80;99.90
49242;DHT22;35079;52.704;13.814;2023-06-14T09:44:08;19.90;99.90
49242;DHT22;35079;52.704;13.814;2023-06-14T09:46:35;19.90;99.90
49242;DHT22;35079;52.704;13.814;2023-06-14T09:49:03;20.00;99.90
49242;DHT22;35079;52.704;13.814;2023-06-14T09:51:29;20.20;99.90
49242;DHT22;35079;52.704;13.814;2023-06-14T09:54:04;20.60;99.90
49242;DHT22;35079;52.704;13.814;2023-06-14T09:56:34;20.80;99.20
49242;DHT22;35079;52.704;13.814;2023-06-14T09:59:04;21.00;99.30
49242;DHT22;35079;52.704;13.814;2023-06-14T10:01:31;21.10;99.20
49242;DHT22;35079;52.704;13.814;2023-06-14T10:04:06;21.30;98.70
49242;DHT22;35079;52.704;13.814;2023-06-14T10:06:35;21.20;97.90
49242;DHT22;35079;52.704;13.814;2023-06-14T10:09:04;20.90;98.30
49242;DHT22;35079;52.704;13.814;2023-06-14T10:11:29;21.10;97.50
49242;DHT22;35079;52.704;13.814;2023-06-14T10:13:56;21.00;97.50
49242;DHT22;35079;52.704;13.814;2023-06-14T10:16:39;20.80;97.70
49242;DHT22;35079;52.704;13.814;2023-06-14T10:19:35;21.00;97.90
49242;DHT22;35079;52.704;13.814;2023-06-14T10:22:25;21.10;97.90
49242;DHT22;35079;52.704;13.814;2023-06-14T10:24:50;21.10;96.90
49242;DHT22;35079;52.704;13.814;2023-06-14T10:27:16;21.50;96.20
49242;DHT22;35079;52.704;13.814;2023-06-14T10:32:24;21.60;96.70
49242;DHT22;35079;52.704;13.814;2023-06-14T10:34:58;21.80;96.10
49242;DHT22;35079;52.704;13.814;2023-06-14T10:37:24;21.60;95.80
49242;DHT22;35079;52.704;13.814;2023-06-14T10:39:50;21.70;95.20
49242;DHT22;35079;52.704;13.814;2023-06-14T10:42:16;21.70;94.30
49242;DHT22;35079;52.704;13.814;2023-06-14T10:44:54;21.80;95.70
49242;DHT22;35079;52.704;13.814;2023-06-14T10:47:36;21.40;95.80
49242;DHT22;35079;52.704;13.814;2023-06-14T10:50:06;21.50;94.60
49242;DHT22;35079;52.704;13.814;2023-06-14T10:52:38;21.60;96.20
49242;DHT22;35079;52.704;13.814;2023-06-14T10:57:54;22.60;94.40
49242;DHT22;35079;52.704;13.814;2023-06-14T11:00:25;23.40;94.20
49242;DHT22;35079;52.704;13.814;2023-06-14T11:05:49;24.80;88.80
49242;DHT22;35079;52.704;13.814;2023-06-14T11:11:06;25.40;82.10
49242;DHT22;35079;52.704;13.814;2023-06-14T11:13:32;25.00;84.10
49242;DHT22;35079;52.704;13.814;2023-06-14T11:15:59;24.90;83.10
49242;DHT22;35079;52.704;13.814;2023-06-14T11:18:25;25.30;82.30
49242;DHT22;35079;52.704;13.814;2023-06-14T11:20:52;26.10;82.60
49242;DHT22;35079;52.704;13.814;2023-06-14T11:23:18;26.90;76.30
49242;DHT22;35079;52.704;13.814;2023-06-14T11:25:49;27.20;76.40
49242;DHT22;35079;52.704;13.814;2023-06-14T11:28:14;27.50;72.50
49242;DHT22;35079;52.704;13.814;2023-06-14T11:30:40;27.60;70.30
49242;DHT22;35079;52.704;13.814;2023-06-14T11:33:09;27.80;68.50
49242;DHT22;35079;52.704;13.814;2023-06-14T11:35:35;28.30;67.00
49242;DHT22;35079;52.704;13.814;2023-06-14T11:38:01;28.20;68.30
49242;DHT22;35079;52.704;13.814;2023-06-14T11:40:28;28.30;65.50
49242;DHT22;35079;52.704;13.814;2023-06-14T11:43:01;28.30;62.60
49242;DHT22;35079;52.704;13.814;2023-06-14T11:45:28;28.60;63.60
49242;DHT22;35079;52.704;13.814;2023-06-14T11:47:55;27.40;63.10
49242;DHT22;35079;52.704;13.814;2023-06-14T11:50:25;27.90;63.60
49242;DHT22;35079;52.704;13.814;2023-06-14T11:52:59;28.20;62.10
49242;DHT22;35079;52.704;13.814;2023-06-14T11:55:39;28.70;62.00
49242;DHT22;35079;52.704;13.814;2023-06-14T11:58:06;29.50;60.30
49242;DHT22;35079;52.704;13.814;2023-06-14T12:00:32;29.60;57.30
49242;DHT22;35079;52.704;13.814;2023-06-14T12:02:58;29.60;56.30
49242;DHT22;35079;52.704;13.814;2023-06-14T12:05:24;29.50;58.00
49242;DHT22;35079;52.704;13.814;2023-06-14T12:07:58;30.00;56.20
49242;DHT22;35079;52.704;13.814;2023-06-14T12:10:25;30.50;53.70
49242;DHT22;35079;52.704;13.814;2023-06-14T12:12:51;30.90;52.20
49242;DHT22;35079;52.704;13.814;2023-06-14T12:15:16;31.50;52.00
49242;DHT22;35079;52.704;13.814;2023-06-14T12:17:42;30.20;51.40
49242;DHT22;35079;52.704;13.814;2023-06-14T12:20:10;28.70;53.30
49242;DHT22;35079;52.704;13.814;2023-06-14T12:22:59;29.00;52.60
49242;DHT22;35079;52.704;13.814;2023-06-14T12:25:34;29.50;53.70
49242;DHT22;35079;52.704;13.814;2023-06-14T12:28:08;30.40;54.10
49242;DHT22;35079;52.704;13.814;2023-06-14T12:30:38;31.00;51.70
49242;DHT22;35079;52.704;13.814;2023-06-14T12:33:04;31.80;49.20
49242;DHT22;35079;52.704;13.814;2023-06-14T12:35:30;31.30;48.90
49242;DHT22;35079;52.704;13.814;2023-06-14T12:37:56;31.00;49.00
49242;DHT22;35079;52.704;13.814;2023-06-14T12:40:22;30.40;50.60
49242;DHT22;35079;52.704;13.814;2023-06-14T12:42:48;30.30;48.80
49242;DHT22;35079;52.704;13.814;2023-06-14T12:45:14;30.10;49.00
49242;DHT22;35079;52.704;13.814;2023-06-14T12:47:40;30.00;50.60
49242;DHT22;35079;52.704;13.814;2023-06-14T12:50:07;29.40;51.20
49242;DHT22;35079;52.704;13.814;2023-06-14T12:52:32;29.60;49.10
49242;DHT22;35079;52.704;13.814;2023-06-14T12:55:04;29.90;52.10
49242;DHT22;35079;52.704;13.814;2023-06-14T12:57:30;29.90;50.00
49242;DHT22;35079;52.704;13.814;2023-06-14T12:59:56;30.20;48.20
49242;DHT22;35079;52.704;13.814;2023-06-14T13:02:22;30.20;48.40
49242;DHT22;35079;52.704;13.814;2023-06-14T13:04:49;29.50;48.90
49242;DHT22;35079;52.704;13.814;2023-06-14T13:07:14;29.00;47.40
49242;DHT22;35079;52.704;13.814;2023-06-14T13:09:40;29.40;49.60
49242;DHT22;35079;52.704;13.814;2023-06-14T13:12:07;29.00;49.90
49242;DHT22;35079;52.704;13.814;2023-06-14T13:14:32;29.70;48.60
49242;DHT22;35079;52.704;13.814;2023-06-14T13:16:58;29.60;49.80
49242;DHT22;35079;52.704;13.814;2023-06-14T13:19:24;29.80;47.70
49242;DHT22;35079;52.704;13.814;2023-06-14T13:21:49;28.80;50.30
49242;DHT22;35079;52.704;13.814;2023-06-14T13:24:15;28.00;49.90
49242;DHT22;35079;52.704;13.814;2023-06-14T13:26:41;28.00;51.00
49242;DHT22;35079;52.704;13.814;2023-06-14T13:29:06;28.10;49.30
49242;DHT22;35079;52.704;13.814;2023-06-14T13:31:32;27.30;51.20
49242;DHT22;35079;52.704;13.814;2023-06-14T13:33:58;27.20;52.50
49242;DHT22;35079;52.704;13.814;2023-06-14T13:36:24;27.30;51.10
49242;DHT22;35079;52.704;13.814;2023-06-14T13:38:49;27.00;51.30
49242;DHT22;35079;52.704;13.814;2023-06-14T13:41:17;26.90;53.70
49242;DHT22;35079;52.704;13.814;2023-06-14T13:43:42;26.90;50.80
49242;DHT22;35079;52.704;13.814;2023-06-14T13:46:08;26.60;53.10
49242;DHT22;35079;52.704;13.814;2023-06-14T13:48:33;26.30;52.60
49242;DHT22;35079;52.704;13.814;2023-06-14T13:51:00;26.00;54.40
49242;DHT22;35079;52.704;13.814;2023-06-14T13:53:26;25.30;55.70
49242;DHT22;35079;52.704;13.814;2023-06-14T13:55:52;25.10;55.90
49242;DHT22;35079;52.704;13.814;2023-06-14T13:58:18;25.00;57.70
49242;DHT22;35079;52.704;13.814;2023-06-14T14:00:44;25.10;55.00
49242;DHT22;35079;52.704;13.814;2023-06-14T14:03:10;25.00;55.40
49242;DHT22;35079;52.704;13.814;2023-06-14T14:05:36;25.00;56.50
49242;DHT22;35079;52.704;13.814;2023-06-14T14:08:02;24.90;56.30
49242;DHT22;35079;52.704;13.814;2023-06-14T14:10:28;24.90;57.80
49242;DHT22;35079;52.704;13.814;2023-06-14T14:12:53;24.70;57.60
49242;DHT22;35079;52.704;13.814;2023-06-14T14:15:20;24.80;57.90
49242;DHT22;35079;52.704;13.814;2023-06-14T14:17:45;24.80;57.30
49242;DHT22;35079;52.704;13.814;2023-06-14T14:20:12;24.90;59.10
49242;DHT22;35079;52.704;13.814;2023-06-14T14:22:41;25.10;58.00
49242;DHT22;35079;52.704;13.814;2023-06-14T14:25:07;25.30;57.70
49242;DHT22;35079;52.704;13.814;2023-06-14T14:27:32;25.40;56.20
49242;DHT22;35079;52.704;13.814;2023-06-14T14:29:58;25.30;56.40
49242;DHT22;35079;52.704;13.814;2023-06-14T14:32:24;25.00;58.10
49242;DHT22;35079;52.704;13.814;2023-06-14T14:34:49;24.70;58.60
49242;DHT22;35079;52.704;13.814;2023-06-14T14:37:16;24.40;57.80
49242;DHT22;35079;52.704;13.814;2023-06-14T14:39:41;24.00;59.10
49242;DHT22;35079;52.704;13.814;2023-06-14T14:42:07;23.50;59.90
49242;DHT22;35079;52.704;13.814;2023-06-14T14:44:33;23.30;61.70
49242;DHT22;35079;52.704;13.814;2023-06-14T14:46:59;23.10;63.60
49242;DHT22;35079;52.704;13.814;2023-06-14T14:49:24;22.70;62.80
49242;DHT22;35079;52.704;13.814;2023-06-14T14:51:50;22.70;63.60
49242;DHT22;35079;52.704;13.814;2023-06-14T14:54:16;22.70;62.40
49242;DHT22;35079;52.704;13.814;2023-06-14T14:56:41;22.50;63.80
49242;DHT22;35079;52.704;13.814;2023-06-14T14:59:07;22.40;63.10
49242;DHT22;35079;52.704;13.814;2023-06-14T15:01:33;22.30;63.90
49242;DHT22;35079;52.704;13.814;2023-06-14T15:03:58;22.20;64.10
49242;DHT22;35079;52.704;13.814;2023-06-14T15:06:24;22.00;65.00
49242;DHT22;35079;52.704;13.814;2023-06-14T15:08:50;22.00;66.00
49242;DHT22;35079;52.704;13.814;2023-06-14T15:11:16;22.20;65.90
49242;DHT22;35079;52.704;13.814;2023-06-14T15:13:41;22.10;66.30
49242;DHT22;35079;52.704;13.814;2023-06-14T15:16:07;22.00;67.70
49242;DHT22;35079;52.704;13.814;2023-06-14T15:18:33;21.90;66.50
49242;DHT22;35079;52.704;13.814;2023-06-14T15:20:58;22.10;66.60
49242;DHT22;35079;52.704;13.814;2023-06-14T15:23:24;21.80;66.50
49242;DHT22;35079;52.704;13.814;2023-06-14T15:25:49;21.90;66.90
49242;DHT22;35079;52.704;13.814;2023-06-14T15:28:17;21.90;67.90
49242;DHT22;35079;52.704;13.814;2023-06-14T15:30:42;21.80;67.90
49242;DHT22;35079;52.704;13.814;2023-06-14T15:33:08;21.70;68.50
49242;DHT22;35079;52.704;13.814;2023-06-14T15:35:34;21.50;68.10
49242;DHT22;35079;52.704;13.814;2023-06-14T15:37:59;21.50;68.80
49242;DHT22;35079;52.704;13.814;2023-06-14T15:40:25;21.50;68.30